sensor_id;sensor_type;location;lat;lon;timestamp;temperature;humidity
66096;SHT31;53861;53.422;14.530;2023-02-15T00:01:25;-0.20;89.21
66096;SHT31;53861;53.422;14.530;2023-02-15T00:03:52;-0.13;89.03
66096;SHT31;53861;53.422;14.530;2023-02-15T00:06:19;-0.10;88.97
66096;SHT31;53861;53.422;14.530;2023-02-15T00:08:48;-0.09;89.10
66096;SHT31;53861;53.422;14.530;2023-02-15T00:11:16;-0.17;88.85
66096;SHT31;53861;53.422;14.530;2023-02-15T00:14:03;-0.13;89.01
66096;SHT31;53861;53.422;14.530;2023-02-15T00:16:30;-0.16;89.19
66096;SHT31;53861;53.422;14.530;2023-02-15T00:18:57;-0.30;88.80
66096;SHT31;53861;53.422;14.530;2023-02-15T00:21:27;-0.27;89.04
66096;SHT31;53861;53.422;14.530;2023-02-15T00:23:56;-0.27;89.11
66096;SHT31;53861;53.422;14.530;2023-02-15T00:26:24;-0.24;89.24
66096;SHT31;53861;53.422;14.530;2023-02-15T00:28:51;-0.37;88.93
66096;SHT31;53861;53.422;14.530;2023-02-15T00:31:18;-0.51;88.38
66096;SHT31;53861;53.422;14.530;2023-02-15T00:33:45;-0.45;89.25
66096;SHT31;53861;53.422;14.530;2023-02-15T00:36:12;-0.44;89.10
66096;SHT31;53861;53.422;14.530;2023-02-15T00:38:39;-0.54;89.47
66096;SHT31;53861;53.422;14.530;2023-02-15T00:41:08;-0.47;89.57
66096;SHT31;53861;53.422;14.530;2023-02-15T00:43:36;-0.33;89.31
66096;SHT31;53861;53.422;14.530;2023-02-15T00:46:03;-0.30;88.92
66096;SHT31;53861;53.422;14.530;2023-02-15T00:48:30;-0.41;87.92
66096;SHT31;53861;53.422;14.530;2023-02-15T00:50:58;-0.47;88.89
66096;SHT31;53861;53.422;14.530;2023-02-15T00:53:25;-0.40;89.10
66096;SHT31;53861;53.422;14.530;2023-02-15T00:55:52;-0.48;89.08
66096;SHT31;53861;53.422;14.530;2023-02-15T00:58:21;-0.51;89.20
66096;SHT31;53861;53.422;14.530;2023-02-15T01:00:48;-0.62;88.57
66096;SHT31;53861;53.422;14.530;2023-02-15T01:03:15;-0.50;89.47
66096;SHT31;53861;53.422;14.530;2023-02-15T01:05:43;-0.40;89.31
66096;SHT31;53861;53.422;14.530;2023-02-15T01:08:10;-0.67;88.63
66096;SHT31;53861;53.422;14.530;2023-02-15T01:10:37;-0.51;89.43
66096;SHT31;53861;53.422;14.530;2023-02-15T01:13:04;-0.47;88.65
66096;SHT31;53861;53.422;14.530;2023-02-15T01:15:33;-0.37;88.90
66096;SHT31;53861;53.422;14.530;2023-02-15T01:18:00;-0.65;88.49
66096;SHT31;53861;53.422;14.530;2023-02-15T01:20:27;-0.60;88.94
66096;SHT31;53861;53.422;14.530;2023-02-15T01:22:56;-0.69;88.76
66096;SHT31;53861;53.422;14.530;2023-02-15T01:25:23;-0.78;89.03
66096;SHT31;53861;53.422;14.530;2023-02-15T01:27:50;-0.78;88.77
66096;SHT31;53861;53.422;14.530;2023-02-15T01:30:17;-0.85;88.78
66096;SHT31;53861;53.422;14.530;2023-02-15T01:32:46;-0.81;89.48
66096;SHT31;53861;53.422;14.530;2023-02-15T01:35:13;-0.77;88.79
66096;SHT31;53861;53.422;14.530;2023-02-15T01:37:40;-0.84;88.74
66096;SHT31;53861;53.422;14.530;2023-02-15T01:40:07;-0.82;88.64
66096;SHT31;53861;53.422;14.530;2023-02-15T01:42:35;-0.88;88.55
66096;SHT31;53861;53.422;14.530;2023-02-15T01:45:03;-0.89;89.25
66096;SHT31;53861;53.422;14.530;2023-02-15T01:47:32;-0.74;89.36
66096;SHT31;53861;53.422;14.530;2023-02-15T01:50:06;-0.72;89.38
66096;SHT31;53861;53.422;14.530;2023-02-15T01:52:35;-0.74;88.98
66096;SHT31;53861;53.422;14.530;2023-02-15T01:55:04;-0.68;89.08
66096;SHT31;53861;53.422;14.530;2023-02-15T01:57:31;-0.64;88.85
66096;SHT31;53861;53.422;14.530;2023-02-15T01:59:58;-0.74;88.60
66096;SHT31;53861;53.422;14.530;2023-02-15T02:02:27;-0.82;88.62
66096;SHT31;53861;53.422;14.530;2023-02-15T02:04:54;-0.85;88.85
66096;SHT31;53861;53.422;14.530;2023-02-15T02:07:26;-0.85;89.18
66096;SHT31;53861;53.422;14.530;2023-02-15T02:09:53;-0.92;89.16
66096;SHT31;53861;53.422;14.530;2023-02-15T02:12:20;-0.91;88.39
66096;SHT31;53861;53.422;14.530;2023-02-15T02:14:48;-0.81;88.88
66096;SHT31;53861;53.422;14.530;2023-02-15T02:17:17;-0.95;88.10
66096;SHT31;53861;53.422;14.530;2023-02-15T02:20:01;-0.98;88.42
66096;SHT31;53861;53.422;14.530;2023-02-15T02:22:39;-0.88;88.97
66096;SHT31;53861;53.422;14.530;2023-02-15T02:25:19;-0.85;88.33
66096;SHT31;53861;53.422;14.530;2023-02-15T02:27:49;-0.92;88.99
66096;SHT31;53861;53.422;14.530;2023-02-15T02:30:34;-0.91;88.84
66096;SHT31;53861;53.422;14.530;2023-02-15T02:35:51;-1.15;88.61
66096;SHT31;53861;53.422;14.530;2023-02-15T02:38:23;-1.02;88.88
66096;SHT31;53861;53.422;14.530;2023-02-15T02:40:55;-0.96;89.02
66096;SHT31;53861;53.422;14.530;2023-02-15T02:43:28;-0.96;88.85
66096;SHT31;53861;53.422;14.530;2023-02-15T02:46:00;-1.08;88.62
66096;SHT31;53861;53.422;14.530;2023-02-15T02:48:29;-1.03;89.18
66096;SHT31;53861;53.422;14.530;2023-02-15T02:50:58;-1.10;88.22
66096;SHT31;53861;53.422;14.530;2023-02-15T02:53:25;-1.00;89.27
66096;SHT31;53861;53.422;14.530;2023-02-15T02:55:54;-1.03;89.14
66096;SHT31;53861;53.422;14.530;2023-02-15T02:58:23;-1.06;88.08
66096;SHT31;53861;53.422;14.530;2023-02-15T03:00:53;-1.13;88.16
66096;SHT31;53861;53.422;14.530;2023-02-15T03:03:22;-1.09;89.21
66096;SHT31;53861;53.422;14.530;2023-02-15T03:05:51;-1.06;89.11
66096;SHT31;53861;53.422;14.530;2023-02-15T03:08:22;-0.95;88.80
66096;SHT31;53861;53.422;14.530;2023-02-15T03:10:51;-1.19;88.56
66096;SHT31;53861;53.422;14.530;2023-02-15T03:13:19;-1.20;89.00
66096;SHT31;53861;53.422;14.530;2023-02-15T03:15:46;-1.21;88.43
66096;SHT31;53861;53.422;14.530;2023-02-15T03:18:33;-1.12;89.03
66096;SHT31;53861;53.422;14.530;2023-02-15T03:21:02;-1.25;88.27
66096;SHT31;53861;53.422;14.530;2023-02-15T03:23:31;-1.20;89.32
66096;SHT31;53861;53.422;14.530;2023-02-15T03:26:00;-1.17;89.01
66096;SHT31;53861;53.422;14.530;2023-02-15T03:28:28;-1.21;89.02
66096;SHT31;53861;53.422;14.530;2023-02-15T03:30:56;-1.28;88.90
66096;SHT31;53861;53.422;14.530;2023-02-15T03:33:24;-1.25;89.23
66096;SHT31;53861;53.422;14.530;2023-02-15T03:35:53;-1.19;89.38
66096;SHT31;53861;53.422;14.530;2023-02-15T03:38:25;-1.13;89.43
66096;SHT31;53861;53.422;14.530;2023-02-15T03:40:54;-1.16;89.01
66096;SHT31;53861;53.422;14.530;2023-02-15T03:43:40;-1.29;88.42
66096;SHT31;53861;53.422;14.530;2023-02-15T03:46:11;-1.26;88.95
66096;SHT31;53861;53.422;14.530;2023-02-15T03:48:41;-1.26;88.56
66096;SHT31;53861;53.422;14.530;2023-02-15T03:51:09;-1.19;88.85
66096;SHT31;53861;53.422;14.530;2023-02-15T03:53:56;-1.20;88.50
66096;SHT31;53861;53.422;14.530;2023-02-15T03:56:25;-1.25;88.74
66096;SHT31;53861;53.422;14.530;2023-02-15T03:58:53;-1.26;88.75
66096;SHT31;53861;53.422;14.530;2023-02-15T04:01:37;-1.17;89.19
66096;SHT31;53861;53.422;14.530;2023-02-15T04:04:23;-1.15;88.62
66096;SHT31;53861;53.422;14.530;2023-02-15T04:06:50;-1.09;89.01
66096;SHT31;53861;53.422;14.530;2023-02-15T04:09:17;-1.09;89.07
66096;SHT31;53861;53.422;14.530;2023-02-15T04:12:03;-1.13;89.23
66096;SHT31;53861;53.422;14.530;2023-02-15T04:14:30;-1.20;88.92
66096;SHT31;53861;53.422;14.530;2023-02-15T04:17:14;-1.21;88.55
66096;SHT31;53861;53.422;14.530;2023-02-15T04:19:41;-1.26;88.30
66096;SHT31;53861;53.422;14.530;2023-02-15T04:22:25;-1.20;88.99
66096;SHT31;53861;53.422;14.530;2023-02-15T04:25:09;-1.16;88.91
66096;SHT31;53861;53.422;14.530;2023-02-15T04:27:38;-1.26;88.94
66096;SHT31;53861;53.422;14.530;2023-02-15T04:30:05;-1.50;87.93
66096;SHT31;53861;53.422;14.530;2023-02-15T04:32:33;-1.33;89.73
66096;SHT31;53861;53.422;14.530;2023-02-15T04:35:00;-1.25;88.92
66096;SHT31;53861;53.422;14.530;2023-02-15T04:37:27;-1.28;89.08
66096;SHT31;53861;53.422;14.530;2023-02-15T04:39:54;-1.21;89.66
66096;SHT31;53861;53.422;14.530;2023-02-15T04:42:20;-1.25;89.47
66096;SHT31;53861;53.422;14.530;2023-02-15T04:44:49;-1.35;89.38
66096;SHT31;53861;53.422;14.530;2023-02-15T04:47:16;-1.28;89.80
66096;SHT31;53861;53.422;14.530;2023-02-15T04:49:43;-1.32;89.47
66096;SHT31;53861;53.422;14.530;2023-02-15T04:52:10;-1.35;89.90
66096;SHT31;53861;53.422;14.530;2023-02-15T04:54:37;-1.25;90.35
66096;SHT31;53861;53.422;14.530;2023-02-15T04:57:04;-1.15;89.99
66096;SHT31;53861;53.422;14.530;2023-02-15T04:59:31;-1.12;90.06
66096;SHT31;53861;53.422;14.530;2023-02-15T05:02:00;-1.13;89.97
66096;SHT31;53861;53.422;14.530;2023-02-15T05:04:27;-1.08;90.21
66096;SHT31;53861;53.422;14.530;2023-02-15T05:06:54;-1.09;90.25
66096;SHT31;53861;53.422;14.530;2023-02-15T05:09:21;-1.23;90.38
66096;SHT31;53861;53.422;14.530;2023-02-15T05:11:48;-1.23;89.46
66096;SHT31;53861;53.422;14.530;2023-02-15T05:14:15;-1.28;89.36
66096;SHT31;53861;53.422;14.530;2023-02-15T05:16:42;-1.38;89.24
66096;SHT31;53861;53.422;14.530;2023-02-15T05:19:10;-1.28;89.91
66096;SHT31;53861;53.422;14.530;2023-02-15T05:21:37;-1.25;90.48
66096;SHT31;53861;53.422;14.530;2023-02-15T05:24:04;-1.15;90.50
66096;SHT31;53861;53.422;14.530;2023-02-15T05:26:52;-1.05;91.52
66096;SHT31;53861;53.422;14.530;2023-02-15T05:29:36;-0.98;91.25
66096;SHT31;53861;53.422;14.530;2023-02-15T05:32:03;-0.93;90.54
66096;SHT31;53861;53.422;14.530;2023-02-15T05:34:31;-0.93;90.49
66096;SHT31;53861;53.422;14.530;2023-02-15T05:36:58;-0.99;90.21
66096;SHT31;53861;53.422;14.530;2023-02-15T05:39:25;-0.95;89.94
66096;SHT31;53861;53.422;14.530;2023-02-15T05:41:52;-0.99;90.37
66096;SHT31;53861;53.422;14.530;2023-02-15T05:44:19;-1.00;90.15
66096;SHT31;53861;53.422;14.530;2023-02-15T05:46:46;-0.99;90.42
66096;SHT31;53861;53.422;14.530;2023-02-15T05:49:13;-0.98;90.60
66096;SHT31;53861;53.422;14.530;2023-02-15T05:51:41;-0.99;90.57
66096;SHT31;53861;53.422;14.530;2023-02-15T05:54:08;-1.02;90.46
66096;SHT31;53861;53.422;14.530;2023-02-15T05:56:35;-0.92;90.39
66096;SHT31;53861;53.422;14.530;2023-02-15T05:59:02;-0.99;90.55
66096;SHT31;53861;53.422;14.530;2023-02-15T06:01:29;-1.06;90.47
66096;SHT31;53861;53.422;14.530;2023-02-15T06:03:56;-1.02;90.68
66096;SHT31;53861;53.422;14.530;2023-02-15T06:06:23;-0.98;90.48
66096;SHT31;53861;53.422;14.530;2023-02-15T06:08:51;-1.29;88.57
66096;SHT31;53861;53.422;14.530;2023-02-15T06:11:18;-1.19;90.39
66096;SHT31;53861;53.422;14.530;2023-02-15T06:13:45;-1.26;90.28
66096;SHT31;53861;53.422;14.530;2023-02-15T06:16:12;-1.23;90.64
66096;SHT31;53861;53.422;14.530;2023-02-15T06:18:41;-1.25;90.59
66096;SHT31;53861;53.422;14.530;2023-02-15T06:21:08;-1.21;90.10
66096;SHT31;53861;53.422;14.530;2023-02-15T06:23:35;-1.19;90.31
66096;SHT31;53861;53.422;14.530;2023-02-15T06:26:03;-1.12;90.56
66096;SHT31;53861;53.422;14.530;2023-02-15T06:28:30;-1.13;89.87
66096;SHT31;53861;53.422;14.530;2023-02-15T06:30:57;-1.09;90.37
66096;SHT31;53861;53.422;14.530;2023-02-15T06:33:24;-1.10;90.04
66096;SHT31;53861;53.422;14.530;2023-02-15T06:35:51;-1.02;90.48
66096;SHT31;53861;53.422;14.530;2023-02-15T06:38:18;-1.00;90.07
66096;SHT31;53861;53.422;14.530;2023-02-15T06:40:45;-1.03;90.23
66096;SHT31;53861;53.422;14.530;2023-02-15T06:43:14;-0.95;90.12
66096;SHT31;53861;53.422;14.530;2023-02-15T06:45:42;-0.86;90.24
66096;SHT31;53861;53.422;14.530;2023-02-15T06:48:09;-0.86;90.33
66096;SHT31;53861;53.422;14.530;2023-02-15T06:50:36;-0.82;90.09
66096;SHT31;53861;53.422;14.530;2023-02-15T06:53:03;-0.89;89.75
66096;SHT31;53861;53.422;14.530;2023-02-15T06:55:30;-0.85;89.66
66096;SHT31;53861;53.422;14.530;2023-02-15T06:57:57;-0.79;89.65
66096;SHT31;53861;53.422;14.530;2023-02-15T07:00:26;-0.79;89.73
66096;SHT31;53861;53.422;14.530;2023-02-15T07:02:53;-0.79;89.64
66096;SHT31;53861;53.422;14.530;2023-02-15T07:05:21;-0.78;89.93
66096;SHT31;53861;53.422;14.530;2023-02-15T07:07:48;-0.71;89.03
66096;SHT31;53861;53.422;14.530;2023-02-15T07:10:16;-0.57;89.28
66096;SHT31;53861;53.422;14.530;2023-02-15T07:12:43;0.10;88.00
66096;SHT31;53861;53.422;14.530;2023-02-15T07:15:13;1.10;85.40
66096;SHT31;53861;53.422;14.530;2023-02-15T07:17:43;1.79;82.05
66096;SHT31;53861;53.422;14.530;2023-02-15T07:20:13;2.45;79.99
66096;SHT31;53861;53.422;14.530;2023-02-15T07:22:40;2.59;78.63
66096;SHT31;53861;53.422;14.530;2023-02-15T07:25:09;2.86;78.18
66096;SHT31;53861;53.422;14.530;2023-02-15T07:27:39;3.59;76.73
66096;SHT31;53861;53.422;14.530;2023-02-15T07:30:08;3.90;75.88
66096;SHT31;53861;53.422;14.530;2023-02-15T07:32:35;3.89;75.19
66096;SHT31;53861;53.422;14.530;2023-02-15T07:35:03;4.41;74.26
66096;SHT31;53861;53.422;14.530;2023-02-15T07:37:30;3.41;76.43
66096;SHT31;53861;53.422;14.530;2023-02-15T07:39:57;4.17;75.79
66096;SHT31;53861;53.422;14.530;2023-02-15T07:42:24;4.13;75.20
66096;SHT31;53861;53.422;14.530;2023-02-15T07:44:51;4.79;71.52
66096;SHT31;53861;53.422;14.530;2023-02-15T07:47:18;4.99;73.16
66096;SHT31;53861;53.422;14.530;2023-02-15T07:49:48;4.75;73.76
66096;SHT31;53861;53.422;14.530;2023-02-15T07:52:19;3.76;76.83
66096;SHT31;53861;53.422;14.530;2023-02-15T07:54:46;3.82;78.00
66096;SHT31;53861;53.422;14.530;2023-02-15T07:57:13;4.93;75.61
66096;SHT31;53861;53.422;14.530;2023-02-15T07:59:40;5.94;73.36
66096;SHT31;53861;53.422;14.530;2023-02-15T08:02:08;6.80;70.94
66096;SHT31;53861;53.422;14.530;2023-02-15T08:04:36;7.07;69.48
66096;SHT31;53861;53.422;14.530;2023-02-15T08:07:02;7.47;68.99
66096;SHT31;53861;53.422;14.530;2023-02-15T08:09:31;7.67;68.28
66096;SHT31;53861;53.422;14.530;2023-02-15T08:11:58;8.32;68.28
66096;SHT31;53861;53.422;14.530;2023-02-15T08:14:26;8.71;67.62
66096;SHT31;53861;53.422;14.530;2023-02-15T08:16:54;9.19;65.44
66096;SHT31;53861;53.422;14.530;2023-02-15T08:19:22;8.67;66.31
66096;SHT31;53861;53.422;14.530;2023-02-15T08:21:50;9.22;66.45
66096;SHT31;53861;53.422;14.530;2023-02-15T08:24:18;9.22;63.33
66096;SHT31;53861;53.422;14.530;2023-02-15T08:26:46;9.83;64.75
66096;SHT31;53861;53.422;14.530;2023-02-15T08:29:14;9.87;65.14
66096;SHT31;53861;53.422;14.530;2023-02-15T08:31:41;10.13;64.03
66096;SHT31;53861;53.422;14.530;2023-02-15T08:34:09;9.73;63.91
66096;SHT31;53861;53.422;14.530;2023-02-15T08:36:36;11.08;62.92
66096;SHT31;53861;53.422;14.530;2023-02-15T08:39:04;10.82;63.26
66096;SHT31;53861;53.422;14.530;2023-02-15T08:41:32;11.06;61.25
66096;SHT31;53861;53.422;14.530;2023-02-15T08:44:01;9.49;62.34
66096;SHT31;53861;53.422;14.530;2023-02-15T08:46:29;8.85;62.60
66096;SHT31;53861;53.422;14.530;2023-02-15T08:48:57;10.01;62.32
66096;SHT31;53861;53.422;14.530;2023-02-15T08:51:24;10.92;59.53
66096;SHT31;53861;53.422;14.530;2023-02-15T08:53:52;11.26;59.49
66096;SHT31;53861;53.422;14.530;2023-02-15T08:56:19;10.72;61.84
66096;SHT31;53861;53.422;14.530;2023-02-15T08:58:47;10.62;60.19
66096;SHT31;53861;53.422;14.530;2023-02-15T09:01:16;11.66;58.95
66096;SHT31;53861;53.422;14.530;2023-02-15T09:03:45;11.12;60.07
66096;SHT31;53861;53.422;14.530;2023-02-15T09:06:13;12.84;56.35
66096;SHT31;53861;53.422;14.530;2023-02-15T09:08:40;12.22;56.97
66096;SHT31;53861;53.422;14.530;2023-02-15T09:11:08;13.88;52.79
66096;SHT31;53861;53.422;14.530;2023-02-15T09:13:35;12.76;55.52
66096;SHT31;53861;53.422;14.530;2023-02-15T09:16:02;11.19;58.00
66096;SHT31;53861;53.422;14.530;2023-02-15T09:18:32;11.33;61.09
66096;SHT31;53861;53.422;14.530;2023-02-15T09:21:04;11.60;59.59
66096;SHT31;53861;53.422;14.530;2023-02-15T09:23:31;12.59;58.70
66096;SHT31;53861;53.422;14.530;2023-02-15T09:26:01;12.29;57.40
66096;SHT31;53861;53.422;14.530;2023-02-15T09:28:28;12.38;57.46
66096;SHT31;53861;53.422;14.530;2023-02-15T09:30:56;12.63;56.32
66096;SHT31;53861;53.422;14.530;2023-02-15T09:33:23;13.45;55.78
66096;SHT31;53861;53.422;14.530;2023-02-15T09:35:52;13.24;55.18
66096;SHT31;53861;53.422;14.530;2023-02-15T09:38:19;13.34;54.24
66096;SHT31;53861;53.422;14.530;2023-02-15T09:40:49;13.57;53.80
66096;SHT31;53861;53.422;14.530;2023-02-15T09:43:19;13.02;57.42
66096;SHT31;53861;53.422;14.530;2023-02-15T09:46:06;13.86;54.92
66096;SHT31;53861;53.422;14.530;2023-02-15T09:48:43;13.40;54.30
66096;SHT31;53861;53.422;14.530;2023-02-15T09:51:19;12.96;56.72
66096;SHT31;53861;53.422;14.530;2023-02-15T09:53:53;13.11;54.17
66096;SHT31;53861;53.422;14.530;2023-02-15T09:56:24;12.77;55.63
66096;SHT31;53861;53.422;14.530;2023-02-15T09:58:56;14.40;54.54
66096;SHT31;53861;53.422;14.530;2023-02-15T10:01:28;14.22;53.41
66096;SHT31;53861;53.422;14.530;2023-02-15T10:04:04;13.81;54.44
66096;SHT31;53861;53.422;14.530;2023-02-15T10:06:36;15.51;49.53
66096;SHT31;53861;53.422;14.530;2023-02-15T10:09:19;14.92;50.95
66096;SHT31;53861;53.422;14.530;2023-02-15T10:11:53;13.92;52.92
66096;SHT31;53861;53.422;14.530;2023-02-15T10:14:30;14.74;51.65
66096;SHT31;53861;53.422;14.530;2023-02-15T10:17:06;15.48;51.06
66096;SHT31;53861;53.422;14.530;2023-02-15T10:19:39;14.12;50.61
66096;SHT31;53861;53.422;14.530;2023-02-15T10:22:14;14.20;52.25
66096;SHT31;53861;53.422;14.530;2023-02-15T10:24:55;13.47;54.61
66096;SHT31;53861;53.422;14.530;2023-02-15T10:27:27;12.35;57.31
66096;SHT31;53861;53.422;14.530;2023-02-15T10:30:00;12.73;56.63
66096;SHT31;53861;53.422;14.530;2023-02-15T10:32:28;12.79;57.79
66096;SHT31;53861;53.422;14.530;2023-02-15T10:35:00;12.97;56.72
66096;SHT31;53861;53.422;14.530;2023-02-15T10:40:25;13.75;57.34
66096;SHT31;53861;53.422;14.530;2023-02-15T10:42:57;13.40;55.34
66096;SHT31;53861;53.422;14.530;2023-02-15T10:45:31;13.50;56.99
66096;SHT31;53861;53.422;14.530;2023-02-15T10:50:49;15.01;51.43
66096;SHT31;53861;53.422;14.530;2023-02-15T10:53:33;15.41;48.85
66096;SHT31;53861;53.422;14.530;2023-02-15T10:56:05;15.76;50.40
66096;SHT31;53861;53.422;14.530;2023-02-15T10:58:38;15.70;51.24
66096;SHT31;53861;53.422;14.530;2023-02-15T11:01:11;16.14;50.05
66096;SHT31;53861;53.422;14.530;2023-02-15T11:03:42;16.13;48.64
66096;SHT31;53861;53.422;14.530;2023-02-15T11:06:11;16.61;50.70
66096;SHT31;53861;53.422;14.530;2023-02-15T11:08:39;17.43;47.50
66096;SHT31;53861;53.422;14.530;2023-02-15T11:11:08;16.20;50.43
66096;SHT31;53861;53.422;14.530;2023-02-15T11:13:38;17.02;50.01
66096;SHT31;53861;53.422;14.530;2023-02-15T11:16:07;16.23;50.92
66096;SHT31;53861;53.422;14.530;2023-02-15T11:18:37;17.97;44.58
66096;SHT31;53861;53.422;14.530;2023-02-15T11:21:07;15.45;50.94
66096;SHT31;53861;53.422;14.530;2023-02-15T11:23:38;14.85;52.27
66096;SHT31;53861;53.422;14.530;2023-02-15T11:26:11;13.86;55.18
66096;SHT31;53861;53.422;14.530;2023-02-15T11:28:40;14.51;54.59
66096;SHT31;53861;53.422;14.530;2023-02-15T11:31:12;14.84;53.83
66096;SHT31;53861;53.422;14.530;2023-02-15T11:33:39;14.64;52.52
66096;SHT31;53861;53.422;14.530;2023-02-15T11:36:11;15.35;52.57
66096;SHT31;53861;53.422;14.530;2023-02-15T11:38:42;15.17;51.23
66096;SHT31;53861;53.422;14.530;2023-02-15T11:41:13;14.63;53.82
66096;SHT31;53861;53.422;14.530;2023-02-15T11:43:43;14.80;53.93
66096;SHT31;53861;53.422;14.530;2023-02-15T11:46:11;14.84;53.02
66096;SHT31;53861;53.422;14.530;2023-02-15T11:48:38;15.20;55.30
66096;SHT31;53861;53.422;14.530;2023-02-15T11:51:08;15.97;52.22
66096;SHT31;53861;53.422;14.530;2023-02-15T11:53:36;15.72;51.27
66096;SHT31;53861;53.422;14.530;2023-02-15T11:56:04;15.92;53.02
66096;SHT31;53861;53.422;14.530;2023-02-15T11:58:35;15.61;52.26
66096;SHT31;53861;53.422;14.530;2023-02-15T12:01:08;15.67;52.23
66096;SHT31;53861;53.422;14.530;2023-02-15T12:03:41;16.37;51.15
66096;SHT31;53861;53.422;14.530;2023-02-15T12:06:12;15.95;51.35
66096;SHT31;53861;53.422;14.530;2023-02-15T12:08:42;15.86;50.28
66096;SHT31;53861;53.422;14.530;2023-02-15T12:11:12;15.70;51.75
66096;SHT31;53861;53.422;14.530;2023-02-15T12:13:54;15.14;53.51
66096;SHT31;53861;53.422;14.530;2023-02-15T12:16:22;15.07;53.97
66096;SHT31;53861;53.422;14.530;2023-02-15T12:18:49;16.30;51.81
66096;SHT31;53861;53.422;14.530;2023-02-15T12:21:23;16.20;52.12
66096;SHT31;53861;53.422;14.530;2023-02-15T12:23:52;15.78;53.43
66096;SHT31;53861;53.422;14.530;2023-02-15T12:26:23;16.68;51.35
66096;SHT31;53861;53.422;14.530;2023-02-15T12:28:50;16.69;50.01
66096;SHT31;53861;53.422;14.530;2023-02-15T12:31:21;16.48;50.38
66096;SHT31;53861;53.422;14.530;2023-02-15T12:33:50;15.58;52.37
66096;SHT31;53861;53.422;14.530;2023-02-15T12:36:19;15.34;51.62
66096;SHT31;53861;53.422;14.530;2023-02-15T12:39:01;15.66;51.49
66096;SHT31;53861;53.422;14.530;2023-02-15T12:41:29;16.13;52.57
66096;SHT31;53861;53.422;14.530;2023-02-15T12:44:03;16.41;49.13
66096;SHT31;53861;53.422;14.530;2023-02-15T12:46:32;16.28;51.42
66096;SHT31;53861;53.422;14.530;2023-02-15T12:49:12;16.28;51.49
66096;SHT31;53861;53.422;14.530;2023-02-15T12:51:47;15.00;53.58
66096;SHT31;53861;53.422;14.530;2023-02-15T12:54:21;14.77;54.16
66096;SHT31;53861;53.422;14.530;2023-02-15T12:56:52;15.15;53.09
66096;SHT31;53861;53.422;14.530;2023-02-15T12:59:19;16.30;51.86
66096;SHT31;53861;53.422;14.530;2023-02-15T13:01:48;15.95;53.05
66096;SHT31;53861;53.422;14.530;2023-02-15T13:04:20;15.17;54.02
66096;SHT31;53861;53.422;14.530;2023-02-15T13:06:49;15.46;52.67
66096;SHT31;53861;53.422;14.530;2023-02-15T13:09:18;14.85;54.18
66096;SHT31;53861;53.422;14.530;2023-02-15T13:11:46;14.64;54.18
66096;SHT31;53861;53.422;14.530;2023-02-15T13:14:17;13.82;56.90
66096;SHT31;53861;53.422;14.530;2023-02-15T13:16:45;14.05;56.91
66096;SHT31;53861;53.422;14.530;2023-02-15T13:19:15;13.54;56.48
66096;SHT31;53861;53.422;14.530;2023-02-15T13:21:43;13.36;58.54
66096;SHT31;53861;53.422;14.530;2023-02-15T13:24:15;12.56;60.62
66096;SHT31;53861;53.422;14.530;2023-02-15T13:26:43;12.83;59.65
66096;SHT31;53861;53.422;14.530;2023-02-15T13:29:17;12.25;61.21
66096;SHT31;53861;53.422;14.530;2023-02-15T13:31:45;11.90;61.28
66096;SHT31;53861;53.422;14.530;2023-02-15T13:34:14;11.06;64.29
66096;SHT31;53861;53.422;14.530;2023-02-15T13:36:47;10.93;64.05
66096;SHT31;53861;53.422;14.530;2023-02-15T13:39:19;11.12;64.14
66096;SHT31;53861;53.422;14.530;2023-02-15T13:41:49;10.57;65.24
66096;SHT31;53861;53.422;14.530;2023-02-15T13:44:20;10.24;66.63
66096;SHT31;53861;53.422;14.530;2023-02-15T13:46:51;10.18;67.00
66096;SHT31;53861;53.422;14.530;2023-02-15T13:49:26;10.67;65.85
66096;SHT31;53861;53.422;14.530;2023-02-15T13:52:01;10.76;66.37
66096;SHT31;53861;53.422;14.530;2023-02-15T13:54:43;10.68;64.85
66096;SHT31;53861;53.422;14.530;2023-02-15T13:57:20;10.20;67.17
66096;SHT31;53861;53.422;14.530;2023-02-15T13:59:57;9.84;68.30
66096;SHT31;53861;53.422;14.530;2023-02-15T14:02:33;10.08;68.37
66096;SHT31;53861;53.422;14.530;2023-02-15T14:05:12;10.38;67.63
66096;SHT31;53861;53.422;14.530;2023-02-15T14:07:48;10.96;65.30
66096;SHT31;53861;53.422;14.530;2023-02-15T14:10:25;10.41;66.89
66096;SHT31;53861;53.422;14.530;2023-02-15T14:12:58;10.03;68.64
66096;SHT31;53861;53.422;14.530;2023-02-15T14:15:32;10.34;68.30
66096;SHT31;53861;53.422;14.530;2023-02-15T14:18:05;9.47;69.51
66096;SHT31;53861;53.422;14.530;2023-02-15T14:20:39;9.73;69.78
66096;SHT31;53861;53.422;14.530;2023-02-15T14:23:10;9.63;69.67
66096;SHT31;53861;53.422;14.530;2023-02-15T14:25:38;9.46;69.91
66096;SHT31;53861;53.422;14.530;2023-02-15T14:28:08;9.47;69.53
66096;SHT31;53861;53.422;14.530;2023-02-15T14:30:37;9.75;69.35
66096;SHT31;53861;53.422;14.530;2023-02-15T14:33:05;9.55;69.64
66096;SHT31;53861;53.422;14.530;2023-02-15T14:35:34;9.59;69.46
66096;SHT31;53861;53.422;14.530;2023-02-15T14:38:06;9.45;70.20
66096;SHT31;53861;53.422;14.530;2023-02-15T14:40:39;9.36;69.76
66096;SHT31;53861;53.422;14.530;2023-02-15T14:43:29;9.66;69.74
66096;SHT31;53861;53.422;14.530;2023-02-15T14:45:59;9.56;69.48
66096;SHT31;53861;53.422;14.530;2023-02-15T14:48:28;9.21;71.02
66096;SHT31;53861;53.422;14.530;2023-02-15T14:50:57;8.78;71.56
66096;SHT31;53861;53.422;14.530;2023-02-15T14:56:21;8.51;72.59
66096;SHT31;53861;53.422;14.530;2023-02-15T15:01:38;8.75;72.18
66096;SHT31;53861;53.422;14.530;2023-02-15T15:04:06;8.94;72.31
66096;SHT31;53861;53.422;14.530;2023-02-15T15:06:35;8.92;72.11
66096;SHT31;53861;53.422;14.530;2023-02-15T15:09:09;8.77;72.03
66096;SHT31;53861;53.422;14.530;2023-02-15T15:11:40;8.75;72.36
66096;SHT31;53861;53.422;14.530;2023-02-15T15:14:07;8.49;72.72
66096;SHT31;53861;53.422;14.530;2023-02-15T15:22:04;8.22;73.50
66096;SHT31;53861;53.422;14.530;2023-02-15T15:24:47;7.83;74.44
66096;SHT31;53861;53.422;14.530;2023-02-15T15:30:01;7.71;74.60
66096;SHT31;53861;53.422;14.530;2023-02-15T15:32:28;7.72;74.68
66096;SHT31;53861;53.422;14.530;2023-02-15T15:35:04;7.71;75.27
66096;SHT31;53861;53.422;14.530;2023-02-15T15:37:45;7.57;75.25
66096;SHT31;53861;53.422;14.530;2023-02-15T15:43:19;7.50;75.61
66096;SHT31;53861;53.422;14.530;2023-02-15T15:46:01;7.27;76.09
66096;SHT31;53861;53.422;14.530;2023-02-15T15:48:33;7.14;76.32
66096;SHT31;53861;53.422;14.530;2023-02-15T15:51:01;7.00;76.74
66096;SHT31;53861;53.422;14.530;2023-02-15T15:53:31;7.07;76.84
66096;SHT31;53861;53.422;14.530;2023-02-15T15:56:00;7.04;76.81
66096;SHT31;53861;53.422;14.530;2023-02-15T15:58:30;7.04;76.75
66096;SHT31;53861;53.422;14.530;2023-02-15T16:00:59;6.86;76.72
66096;SHT31;53861;53.422;14.530;2023-02-15T16:03:30;6.68;77.42